createdAt,value
2019-04-06T00:01:48.098Z,94474.20
2019-04-06T00:04:18.261Z,94480.61
2019-04-06T00:06:48.242Z,94474.21
2019-04-06T00:09:18.448Z,94466.19
2019-04-06T00:11:48.694Z,94465.49
2019-04-06T00:14:18.666Z,94467.64
2019-04-06T00:16:48.295Z,94470.11
2019-04-06T00:19:18.118Z,94462.63
2019-04-06T00:21:47.615Z,94465.94
2019-04-06T00:24:17.271Z,94465.22
2019-04-06T00:26:46.900Z,94463.94
2019-04-06T00:29:16.570Z,94464.55
2019-04-06T00:31:57.005Z,94463.58
2019-04-06T00:34:26.497Z,94462.35
2019-04-06T00:36:55.997Z,94468.47
2019-04-06T00:39:25.557Z,94470.95
2019-04-06T00:41:55.188Z,94468.42
2019-04-06T00:44:24.826Z,94464.53
2019-04-06T00:46:55.526Z,94452.50
2019-04-06T00:49:26.299Z,94452.09
2019-04-06T00:51:55.777Z,94456.05
2019-04-06T00:54:25.311Z,94462.94
2019-04-06T00:56:54.813Z,94457.25
2019-04-06T00:59:24.445Z,94461.02
2019-04-06T01:01:53.878Z,94451.47
2019-04-06T01:04:23.445Z,94454.52
2019-04-06T01:06:52.946Z,94452.16
2019-04-06T01:09:22.411Z,94452.03
2019-04-06T01:11:51.987Z,94451.48
2019-04-06T01:14:21.683Z,94463.91
2019-04-06T01:16:51.253Z,94468.36
2019-04-06T01:19:20.808Z,94462.83
2019-04-06T01:21:50.301Z,94462.03
2019-04-06T01:24:20.261Z,94454.61
2019-04-06T01:26:49.770Z,94460.03
2019-04-06T01:29:19.263Z,94463.66
2019-04-06T01:31:48.757Z,94468.13
2019-04-06T01:34:18.403Z,94464.04
2019-04-06T01:36:48.003Z,94463.62
2019-04-06T01:39:17.848Z,94466.58
2019-04-06T01:41:47.317Z,94472.70
2019-04-06T01:44:17.217Z,94459.71
2019-04-06T01:46:46.702Z,94468.95
2019-04-06T01:49:16.391Z,94470.17
2019-04-06T01:51:45.819Z,94468.58
2019-04-06T01:54:15.336Z,94465.92
2019-04-06T01:56:44.763Z,94475.55
2019-04-06T01:59:14.186Z,94448.66
2019-04-06T02:01:54.161Z,94458.84
2019-04-06T02:04:24.179Z,94464.31
2019-04-06T02:06:53.777Z,94457.63
2019-04-06T02:09:23.282Z,94454.34
2019-04-06T02:11:52.859Z,94457.16
2019-04-06T02:14:22.295Z,94452.59
2019-04-06T02:16:51.786Z,94461.19
2019-04-06T02:19:21.352Z,94458.26
2019-04-06T02:21:52.122Z,94456.06
2019-04-06T02:24:21.576Z,94460.16
2019-04-06T02:26:51.099Z,94465.70
2019-04-06T02:29:20.510Z,94457.59
2019-04-06T02:31:57.960Z,94455.48
2019-04-06T02:34:32.123Z,94455.51
2019-04-06T02:37:03.212Z,94454.28
2019-04-06T02:39:49.197Z,94465.60
2019-04-06T02:42:20.364Z,94459.44
2019-04-06T02:44:49.804Z,94458.69
2019-04-06T02:47:19.525Z,94456.66
2019-04-06T02:49:49.182Z,94459.75
2019-04-06T02:52:19.682Z,94461.63
2019-04-06T02:54:49.186Z,94465.91
2019-04-06T02:57:18.717Z,94463.75
2019-04-06T02:59:48.181Z,94468.22
2019-04-06T03:02:17.747Z,94472.31
2019-04-06T03:04:48.673Z,94463.16
2019-04-06T03:07:18.237Z,94476.98
2019-04-06T03:09:47.810Z,94472.25
2019-04-06T03:12:17.416Z,94469.91
2019-04-06T03:14:47.085Z,94465.91
2019-04-06T03:17:16.787Z,94462.97
2019-04-06T03:19:46.405Z,94460.39
2019-04-06T03:22:17.057Z,94475.73
2019-04-06T03:24:46.617Z,94466.02
2019-04-06T03:27:16.219Z,94468.00
2019-04-06T03:29:56.414Z,94474.64
2019-04-06T03:32:16.870Z,94479.30
2019-04-06T03:34:48.375Z,94478.61
2019-04-06T03:37:17.958Z,94481.33
2019-04-06T03:39:47.544Z,94481.47
2019-04-06T03:42:17.040Z,94484.80
2019-04-06T03:44:46.676Z,94489.67
2019-04-06T03:47:17.657Z,94486.66
2019-04-06T03:49:47.049Z,94478.94
2019-04-06T03:52:16.491Z,94489.83
2019-04-06T03:54:46.133Z,94491.42
2019-04-06T03:57:16.946Z,94491.27
2019-04-06T03:59:46.777Z,94487.08
2019-04-06T04:02:16.427Z,94489.47
2019-04-06T04:04:46.127Z,94492.03
2019-04-06T04:07:15.772Z,94499.35
2019-04-06T04:09:45.965Z,94502.59
2019-04-06T04:12:15.949Z,94503.33
2019-04-06T04:14:45.360Z,94501.27
2019-04-06T04:17:15.037Z,94498.70
2019-04-06T04:19:44.516Z,94511.36
2019-04-06T04:22:14.033Z,94499.71
2019-04-06T04:24:43.773Z,94515.36
2019-04-06T04:27:27.339Z,94517.22
2019-04-06T04:29:44.755Z,94512.02
2019-04-06T04:32:14.156Z,94531.88
2019-04-06T04:34:43.705Z,94525.73
2019-04-06T04:37:13.136Z,94530.69
2019-04-06T04:39:42.702Z,94531.64
2019-04-06T04:42:12.208Z,94531.64
2019-04-06T04:44:41.868Z,94537.01
2019-04-06T04:47:11.583Z,94534.45
2019-04-06T04:49:41.231Z,94531.89
2019-04-06T04:52:10.737Z,94532.46
2019-04-06T04:54:40.311Z,94531.79
2019-04-06T04:57:09.804Z,94518.10
2019-04-06T04:59:39.296Z,94529.63
2019-04-06T05:02:08.793Z,94527.66
2019-04-06T05:04:38.348Z,94524.44
2019-04-06T05:07:07.850Z,94526.30
2019-04-06T05:09:37.339Z,94523.41
2019-04-06T05:12:06.920Z,94524.52
2019-04-06T05:14:56.118Z,94526.42
2019-04-06T05:17:25.822Z,94519.42
2019-04-06T05:19:55.647Z,94515.75
2019-04-06T05:22:25.266Z,94517.20
2019-04-06T05:24:54.873Z,94509.42
2019-04-06T05:27:24.765Z,94510.88
2019-04-06T05:29:54.304Z,94506.26
2019-04-06T05:32:23.933Z,94499.23
2019-04-06T05:34:53.405Z,94508.33
2019-04-06T05:37:23.042Z,94506.12
2019-04-06T05:39:52.683Z,94501.97
2019-04-06T05:42:22.303Z,94504.14
2019-04-06T05:44:52.007Z,94497.55
2019-04-06T05:47:21.486Z,94506.73
2019-04-06T05:49:51.093Z,94498.16
2019-04-06T05:52:20.590Z,94487.70
2019-04-06T05:54:50.200Z,94486.80
2019-04-06T05:57:19.841Z,94489.97
2019-04-06T05:59:49.330Z,94478.33
2019-04-06T06:02:19.006Z,94479.21
2019-04-06T06:04:48.808Z,94464.78
2019-04-06T06:07:18.277Z,94472.48
2019-04-06T06:09:48.924Z,94477.59
2019-04-06T06:12:18.462Z,94471.92
2019-04-06T06:14:48.028Z,94471.70
2019-04-06T06:17:17.643Z,94480.91
2019-04-06T06:19:47.286Z,94475.97
2019-04-06T06:22:16.968Z,94483.86
2019-04-06T06:24:46.917Z,94475.02
2019-04-06T06:27:16.446Z,94478.00
2019-04-06T06:29:47.734Z,94473.34
2019-04-06T06:32:17.359Z,94476.17
2019-04-06T06:34:47.975Z,94480.03
2019-04-06T06:37:17.619Z,94471.70
2019-04-06T06:39:47.212Z,94466.34
2019-04-06T06:42:16.876Z,94468.98
2019-04-06T06:44:46.396Z,94472.47
2019-04-06T06:47:15.824Z,94462.69
2019-04-06T06:49:45.626Z,94464.37
2019-04-06T06:52:15.079Z,94458.13
2019-04-06T06:54:44.740Z,94454.20
2019-04-06T06:57:14.480Z,94445.37
2019-04-06T06:59:43.923Z,94447.21
2019-04-06T07:02:13.536Z,94451.42
2019-04-06T07:04:43.494Z,94446.95
2019-04-06T07:07:13.109Z,94447.23
2019-04-06T07:09:42.527Z,94450.03
2019-04-06T07:12:12.787Z,94455.95
2019-04-06T07:14:42.581Z,94434.39
2019-04-06T07:17:13.752Z,94443.34
2019-04-06T07:19:43.195Z,94434.77
2019-04-06T07:22:13.867Z,94428.81
2019-04-06T07:24:43.386Z,94437.37
2019-04-06T07:27:13.258Z,94437.59
2019-04-06T07:29:44.167Z,94430.41
2019-04-06T07:32:13.710Z,94432.28
2019-04-06T07:34:44.975Z,94431.68
2019-04-06T07:37:14.559Z,94430.52
2019-04-06T07:39:44.125Z,94422.60
2019-04-06T07:42:13.700Z,94423.59
2019-04-06T07:44:44.579Z,94426.97
2019-04-06T07:47:14.052Z,94423.89
2019-04-06T07:49:43.630Z,94412.94
2019-04-06T07:52:13.263Z,94419.19
2019-04-06T07:54:42.799Z,94411.28
2019-04-06T07:57:12.244Z,94423.25
2019-04-06T07:59:41.896Z,94413.37
2019-04-06T08:02:11.404Z,94414.78
2019-04-06T08:04:41.030Z,94407.38
2019-04-06T08:07:10.673Z,94398.11
2019-04-06T08:09:40.278Z,94417.66
2019-04-06T08:12:09.950Z,94406.73
2019-04-06T08:14:39.621Z,94406.33
2019-04-06T08:17:09.402Z,94412.58
2019-04-06T08:19:39.045Z,94412.56
2019-04-06T08:22:08.612Z,94410.32
2019-04-06T08:24:38.430Z,94400.53
2019-04-06T08:27:08.063Z,94411.91
2019-04-06T08:29:37.569Z,94411.38
2019-04-06T08:32:07.175Z,94402.43
2019-04-06T08:34:37.006Z,94391.63
2019-04-06T08:37:06.486Z,94401.81
2019-04-06T08:39:36.045Z,94401.92
2019-04-06T08:42:05.610Z,94400.44
2019-04-06T08:44:35.167Z,94401.20
2019-04-06T08:47:05.905Z,94394.00
2019-04-06T08:49:35.423Z,94394.17
2019-04-06T08:52:05.034Z,94390.23
2019-04-06T08:54:34.640Z,94388.20
2019-04-06T08:57:04.134Z,94388.06
2019-04-06T08:59:33.650Z,94381.24
2019-04-06T09:02:03.189Z,94386.27
2019-04-06T09:04:32.718Z,94387.05
2019-04-06T09:07:02.596Z,94383.55
2019-04-06T09:09:32.094Z,94375.11
2019-04-06T09:12:01.616Z,94380.52
2019-04-06T09:14:31.229Z,94368.58
2019-04-06T09:17:00.861Z,94358.27
2019-04-06T09:19:30.432Z,94350.55
2019-04-06T09:22:00.213Z,94359.44
2019-04-06T09:24:30.118Z,94351.66
2019-04-06T09:26:59.933Z,94373.98
2019-04-06T09:29:29.433Z,94377.42
2019-04-06T09:31:58.950Z,94373.70
2019-04-06T09:34:30.673Z,94370.27
2019-04-06T09:36:59.818Z,94366.36
2019-04-06T09:39:29.399Z,94374.47
2019-04-06T09:41:59.231Z,94362.83
2019-04-06T09:44:46.694Z,94379.91
2019-04-06T09:47:20.662Z,94373.05
2019-04-06T09:50:03.880Z,94363.39
2019-04-06T09:52:35.127Z,94361.69
2019-04-06T09:55:13.256Z,94372.95
2019-04-06T09:57:47.032Z,94364.05
2019-04-06T10:00:24.601Z,94375.13
2019-04-06T10:02:55.882Z,94366.64
2019-04-06T10:05:29.840Z,94369.09
2019-04-06T10:08:00.915Z,94358.66
2019-04-06T10:10:48.221Z,94355.13
2019-04-06T10:13:28.195Z,94348.20
2019-04-06T10:16:08.454Z,94348.92
2019-04-06T10:18:42.769Z,94347.76
2019-04-06T10:21:16.746Z,94333.55
2019-04-06T10:23:50.991Z,94336.58
2019-04-06T10:26:38.484Z,94335.34
2019-04-06T10:29:25.250Z,94333.92
2019-04-06T10:32:03.657Z,94315.30
2019-04-06T10:34:40.952Z,94313.50
2019-04-06T10:37:15.154Z,94312.51
2019-04-06T10:39:49.209Z,94308.25
2019-04-06T10:42:20.446Z,94307.73
2019-04-06T10:45:06.998Z,94301.98
2019-04-06T10:47:38.174Z,94292.20
2019-04-06T10:50:09.421Z,94287.05
2019-04-06T10:52:40.625Z,94279.36
2019-04-06T10:55:28.174Z,94282.77
2019-04-06T10:58:15.743Z,94282.95
2019-04-06T11:00:46.950Z,94278.02
2019-04-06T11:03:21.209Z,94277.19
2019-04-06T11:06:01.644Z,94279.63
2019-04-06T11:08:49.379Z,94269.21
2019-04-06T11:11:24.204Z,94252.53
2019-04-06T11:14:01.776Z,94250.25
2019-04-06T11:16:36.059Z,94248.98
2019-04-06T11:19:10.209Z,94255.88
2019-04-06T11:21:41.425Z,94242.62
2019-04-06T11:24:28.646Z,94238.25
2019-04-06T11:26:59.828Z,94242.09
2019-04-06T11:29:36.661Z,94234.09
2019-04-06T11:32:23.083Z,94228.59
2019-04-06T11:35:10.232Z,94230.95
2019-04-06T11:37:53.320Z,94236.81
2019-04-06T11:40:27.237Z,94236.66
2019-04-06T11:43:10.479Z,94237.38
2019-04-06T11:45:54.196Z,94231.16
2019-04-06T11:48:25.446Z,94232.58
2019-04-06T11:50:56.851Z,94225.89
2019-04-06T11:53:34.007Z,94224.95
2019-04-06T11:56:05.112Z,94218.69
2019-04-06T11:58:36.315Z,94225.53
2019-04-06T12:01:13.385Z,94218.02
2019-04-06T12:04:00.701Z,94217.83
2019-04-06T12:06:34.769Z,94210.83
2019-04-06T12:09:13.326Z,94211.34
2019-04-06T12:12:01.941Z,94207.48
2019-04-06T12:14:35.765Z,94208.06
2019-04-06T12:17:23.461Z,94202.42
2019-04-06T12:20:01.844Z,94190.38
2019-04-06T12:22:35.942Z,94191.91
2019-04-06T12:25:26.271Z,94183.88
2019-04-06T12:28:13.320Z,94176.38
2019-04-06T12:30:50.358Z,94177.73
2019-04-06T12:33:37.391Z,94176.95
2019-04-06T12:36:08.527Z,94166.52
2019-04-06T12:38:57.499Z,94171.91
2019-04-06T12:41:45.164Z,94167.69
2019-04-06T12:44:33.213Z,94160.49
2019-04-06T12:47:19.851Z,94161.70
2019-04-06T12:49:54.190Z,94157.38
2019-04-06T12:52:37.265Z,94144.41
2019-04-06T12:55:08.450Z,94149.14
2019-04-06T12:57:55.874Z,94142.16
2019-04-06T13:00:27.208Z,94134.97
2019-04-06T13:03:01.040Z,94134.18
2019-04-06T13:05:38.079Z,94126.41
2019-04-06T13:08:25.863Z,94129.78
2019-04-06T13:10:57.364Z,94127.17
2019-04-06T13:13:37.679Z,94128.99
2019-04-06T13:16:26.998Z,94121.76
2019-04-06T13:19:13.140Z,94125.39
2019-04-06T13:21:53.070Z,94115.98
2019-04-06T13:24:27.361Z,94118.59
2019-04-06T13:27:13.358Z,94117.03
2019-04-06T13:29:56.653Z,94120.16
2019-04-06T13:32:42.704Z,94121.47
2019-04-06T13:35:23.052Z,94110.06
2019-04-06T13:38:09.473Z,94110.84
2019-04-06T13:40:52.732Z,94104.36
2019-04-06T13:43:24.213Z,94098.11
2019-04-06T13:45:55.641Z,94103.29
2019-04-06T13:48:38.796Z,94114.18
2019-04-06T13:51:13.579Z,94111.02
2019-04-06T13:54:00.074Z,94112.82
2019-04-06T13:56:43.079Z,94105.25
2019-04-06T13:59:30.484Z,94107.36
2019-04-06T14:02:01.592Z,94111.23
2019-04-06T14:04:33.015Z,94113.09
2019-04-06T14:07:07.034Z,94109.94
2019-04-06T14:09:38.202Z,94107.61
2019-04-06T14:12:12.779Z,94107.84
2019-04-06T14:14:59.049Z,94104.74
2019-04-06T14:17:33.227Z,94100.60
2019-04-06T14:20:04.855Z,94102.16
2019-04-06T14:22:39.015Z,94097.23
2019-04-06T14:25:25.901Z,94099.53
2019-04-06T14:28:13.283Z,94107.80
2019-04-06T14:31:00.834Z,94103.90
2019-04-06T14:33:48.312Z,94108.56
2019-04-06T14:36:25.457Z,94108.27
2019-04-06T14:39:12.858Z,94108.83
2019-04-06T14:41:44.289Z,94106.19
2019-04-06T14:44:24.430Z,94098.89
2019-04-06T14:46:58.389Z,94108.15
2019-04-06T14:49:32.908Z,94110.45
2019-04-06T14:52:08.162Z,94113.78
2019-04-06T14:54:42.664Z,94106.80
2019-04-06T14:57:19.838Z,94111.15
2019-04-06T14:59:53.861Z,94108.83
2019-04-06T15:02:36.552Z,94111.66
2019-04-06T15:05:15.803Z,94108.80
2019-04-06T15:07:56.990Z,94116.62
2019-04-06T15:10:45.023Z,94107.95
2019-04-06T15:13:19.354Z,94109.85
2019-04-06T15:15:50.430Z,94100.46
2019-04-06T15:18:30.727Z,94110.37
2019-04-06T15:21:14.071Z,94122.56
2019-04-06T15:23:45.912Z,94111.45
2019-04-06T15:26:33.471Z,94102.58
2019-04-06T15:29:13.933Z,94106.98
2019-04-06T15:31:57.542Z,94102.03
2019-04-06T15:34:35.204Z,94110.06
2019-04-06T15:37:09.627Z,94111.30
2019-04-06T15:39:49.539Z,94111.30
2019-04-06T15:42:41.966Z,94112.36
2019-04-06T15:45:25.504Z,94106.63
2019-04-06T15:48:05.537Z,94108.77
2019-04-06T15:50:55.879Z,94112.62
2019-04-06T15:53:43.787Z,94118.34
2019-04-06T15:56:14.864Z,94123.56
2019-04-06T15:58:49.041Z,94116.55
2019-04-06T16:01:35.186Z,94125.06
2019-04-06T16:04:22.859Z,94122.70
2019-04-06T16:06:54.244Z,94126.33
2019-04-06T16:09:41.930Z,94124.48
2019-04-06T16:12:13.992Z,94134.75
2019-04-06T16:14:51.759Z,94142.30
2019-04-06T16:17:25.796Z,94141.00
2019-04-06T16:19:56.860Z,94149.55
2019-04-06T16:22:31.281Z,94144.08
2019-04-06T16:25:05.249Z,94149.19
2019-04-06T16:27:36.595Z,94163.45
2019-04-06T16:30:26.626Z,94158.41
2019-04-06T16:32:57.894Z,94166.19
2019-04-06T16:35:29.069Z,94160.59
2019-04-06T16:38:00.429Z,94162.72
2019-04-06T16:40:34.965Z,94164.80
2019-04-06T16:43:06.279Z,94151.57
2019-04-06T16:45:37.847Z,94175.41
2019-04-06T16:48:25.280Z,94174.34
2019-04-06T16:50:56.648Z,94180.50
2019-04-06T16:53:36.846Z,94182.47
2019-04-06T16:56:12.157Z,94181.11
2019-04-06T16:58:46.797Z,94187.34
2019-04-06T17:01:33.410Z,94196.50
2019-04-06T17:04:05.926Z,94199.20
2019-04-06T17:06:37.244Z,94203.92
2019-04-06T17:09:22.064Z,94204.97
2019-04-06T17:12:02.346Z,94209.28
2019-04-06T17:14:41.073Z,94205.55
2019-04-06T17:17:32.517Z,94201.54
2019-04-06T17:20:05.806Z,94211.65
2019-04-06T17:22:37.102Z,94210.78
2019-04-06T17:25:19.004Z,94207.80
2019-04-06T17:27:51.436Z,94216.68
2019-04-06T17:30:23.864Z,94203.75
2019-04-06T17:33:00.886Z,94208.30
2019-04-06T17:35:37.811Z,94212.28
2019-04-06T17:38:26.262Z,94215.97
2019-04-06T17:41:04.257Z,94211.92
2019-04-06T17:43:46.955Z,94220.41
2019-04-06T17:46:34.670Z,94228.59
2019-04-06T17:49:14.999Z,94233.19
2019-04-06T17:52:08.650Z,94230.89
2019-04-06T17:54:57.011Z,94245.08
2019-04-06T17:57:37.196Z,94233.89
2019-04-06T18:00:28.291Z,94248.08
2019-04-06T18:03:14.732Z,94244.92
2019-04-06T18:05:48.945Z,94250.66
2019-04-06T18:08:21.784Z,94255.67
2019-04-06T18:10:53.408Z,94265.01
2019-04-06T18:13:24.706Z,94259.11
2019-04-06T18:15:54.240Z,94264.72
2019-04-06T18:18:23.836Z,94261.51
2019-04-06T18:20:53.904Z,94252.30
2019-04-06T18:23:23.442Z,94263.69
2019-04-06T18:25:53.011Z,94262.30
2019-04-06T18:28:22.608Z,94259.55
2019-04-06T18:31:02.838Z,94260.94
2019-04-06T18:33:35.076Z,94259.27
2019-04-06T18:36:06.081Z,94260.31
2019-04-06T18:38:42.512Z,94261.60
2019-04-06T18:41:11.364Z,94261.35
2019-04-06T18:43:40.951Z,94260.47
2019-04-06T18:46:11.554Z,94257.16
2019-04-06T18:48:42.038Z,94264.13
2019-04-06T18:51:11.685Z,94257.13
2019-04-06T18:53:44.650Z,94256.72
2019-04-06T18:56:14.185Z,94260.34
2019-04-06T18:58:43.799Z,94254.92
2019-04-06T19:01:14.653Z,94261.70
2019-04-06T19:03:44.438Z,94263.40
2019-04-06T19:06:14.675Z,94262.48
2019-04-06T19:08:44.590Z,94270.27
2019-04-06T19:11:14.164Z,94271.47
2019-04-06T19:13:44.359Z,94281.00
2019-04-06T19:16:17.022Z,94271.95
2019-04-06T19:18:53.217Z,94270.24
2019-04-06T19:21:30.901Z,94277.12
2019-04-06T19:24:07.507Z,94265.52
2019-04-06T19:26:38.748Z,94269.58
2019-04-06T19:29:08.331Z,94254.19
2019-04-06T19:31:38.063Z,94273.33
2019-04-06T19:34:07.719Z,94271.28
2019-04-06T19:36:37.862Z,94278.63
2019-04-06T19:39:10.922Z,94275.34
2019-04-06T19:41:40.942Z,94264.13
2019-04-06T19:44:10.753Z,94264.34
2019-04-06T19:46:40.446Z,94267.00
2019-04-06T19:49:09.948Z,94265.70
2019-04-06T19:51:40.757Z,94266.78
2019-04-06T19:54:11.984Z,94265.80
2019-04-06T19:56:41.594Z,94262.84
2019-04-06T19:59:12.951Z,94268.52
2019-04-06T20:01:42.651Z,94282.19
2019-04-06T20:04:12.336Z,94280.50
2019-04-06T20:06:42.111Z,94281.29
2019-04-06T20:09:11.753Z,94279.03
2019-04-06T20:11:41.411Z,94286.39
2019-04-06T20:14:11.831Z,94296.17
2019-04-06T20:16:41.949Z,94295.31
2019-04-06T20:19:11.420Z,94295.53
2019-04-06T20:21:41.120Z,94303.46
2019-04-06T20:24:10.891Z,94299.63
2019-04-06T20:26:40.460Z,94307.94
2019-04-06T20:29:10.202Z,94304.17
2019-04-06T20:31:39.708Z,94319.17
2019-04-06T20:34:09.289Z,94307.69
2019-04-06T20:36:39.007Z,94305.43
2019-04-06T20:39:10.105Z,94299.55
2019-04-06T20:41:40.531Z,94299.19
2019-04-06T20:44:10.158Z,94307.59
2019-04-06T20:46:39.831Z,94301.02
2019-04-06T20:49:09.349Z,94303.09
2019-04-06T20:51:38.993Z,94302.02
2019-04-06T20:54:09.073Z,94308.94
2019-04-06T20:56:38.871Z,94303.38
2019-04-06T20:59:08.628Z,94309.88
2019-04-06T21:01:40.681Z,94312.23
2019-04-06T21:04:10.418Z,94314.94
2019-04-06T21:06:41.568Z,94308.09
2019-04-06T21:09:15.074Z,94314.59
2019-04-06T21:11:45.088Z,94316.11
2019-04-06T21:14:14.586Z,94309.25
2019-04-06T21:16:44.599Z,94316.61
2019-04-06T21:19:14.657Z,94316.00
2019-04-06T21:21:44.147Z,94325.25
2019-04-06T21:24:15.829Z,94325.25
2019-04-06T21:26:45.692Z,94324.08
2019-04-06T21:29:15.122Z,94323.81
2019-04-06T21:31:44.740Z,94311.50
2019-04-06T21:34:16.653Z,94323.23
2019-04-06T21:36:46.077Z,94318.53
2019-04-06T21:39:16.428Z,94320.64
2019-04-06T21:41:45.982Z,94325.25
2019-04-06T21:44:15.571Z,94323.63
2019-04-06T21:46:45.065Z,94318.44
2019-04-06T21:49:14.639Z,94325.56
2019-04-06T21:51:44.681Z,94315.05
2019-04-06T21:54:15.996Z,94264.63
2019-04-06T21:56:45.904Z,94315.36
2019-04-06T21:59:16.734Z,94306.94
2019-04-06T22:01:46.939Z,94315.02
2019-04-06T22:04:23.762Z,94310.77
2019-04-06T22:06:47.797Z,94315.45
2019-04-06T22:09:17.615Z,94310.17
2019-04-06T22:11:48.049Z,94312.49
2019-04-06T22:14:19.214Z,94294.64
2019-04-06T22:16:48.726Z,94306.02
2019-04-06T22:19:18.227Z,94303.14
2019-04-06T22:21:48.084Z,94316.08
2019-04-06T22:24:18.618Z,94313.00
2019-04-06T22:26:48.295Z,94315.21
2019-04-06T22:29:18.511Z,94309.34
2019-04-06T22:31:48.377Z,94302.27
2019-04-06T22:34:18.310Z,94283.95
2019-04-06T22:36:48.861Z,94307.55
2019-04-06T22:39:18.289Z,94307.20
2019-04-06T22:41:47.932Z,94309.52
2019-04-06T22:44:17.926Z,94311.30
2019-04-06T22:46:47.604Z,94309.30
2019-04-06T22:49:17.033Z,94310.88
2019-04-06T22:51:46.994Z,94299.44
2019-04-06T22:54:16.598Z,94303.38
2019-04-06T22:56:46.173Z,94304.02
2019-04-06T22:59:16.606Z,94305.20
2019-04-06T23:01:46.158Z,94305.88
2019-04-06T23:04:26.464Z,94308.14
2019-04-06T23:06:57.585Z,94318.11
2019-04-06T23:09:27.212Z,94315.52
2019-04-06T23:11:56.914Z,94308.66
2019-04-06T23:14:27.169Z,94307.78
2019-04-06T23:16:56.914Z,94313.47
2019-04-06T23:19:27.109Z,94304.02
2019-04-06T23:21:56.676Z,94307.41
2019-04-06T23:24:26.238Z,94310.23
2019-04-06T23:26:55.738Z,94304.70
2019-04-06T23:29:25.662Z,94303.34
2019-04-06T23:31:55.194Z,94300.84
2019-04-06T23:34:24.868Z,94302.67
2019-04-06T23:36:54.365Z,94299.05
2019-04-06T23:39:24.096Z,94305.34
2019-04-06T23:41:54.140Z,94315.28
2019-04-06T23:44:23.810Z,94309.66
2019-04-06T23:46:53.418Z,94308.73
2019-04-06T23:49:22.741Z,94303.94
2019-04-06T23:51:52.244Z,94299.28
2019-04-06T23:54:21.793Z,94295.92
2019-04-06T23:56:51.373Z,94305.18
2019-04-06T23:59:20.947Z,94294.00
